Terminal Aerodrome Forecast
Issued by NWS Denver/Boulder, CO

Home | Current Version | Previous Version | Text Only | Print | Product List | Glossary On
Versions: 1 2 3 4 5 6 7 8 9 10 11 12 13 14 15 16 17 18 19 20 21 22 23 24 25 26 27 28 29 30 31 32 33 34 35 36 37 38 39 40 41 42 43 44 45 46 47 48 49 50
145
FTUS45 KBOU 281836 AAA
TAFDEN
TAF AMD
KDEN 281836Z 2819/2924 34008G16KT P6SM FEW080 FEW120
     FM282100 01013KT P6SM SCT080 SCT120
     FM290200 18010KT P6SM SCT080 BKN120
     FM290700 24008KT P6SM FEW080 SCT120
     FM291200 04008KT P6SM SCT060 BKN100
     FM292000 07010KT P6SM SCT060 BKN100
      TEMPO 2921/2924 VRB15G30KT -TSRA BKN050CB=

USA.gov is the U.S. government's official web portal to all federal, state and local government web resources and services.